Smithers Airport
CYYD : now visible

Airfield :











YOU CAN JOIN US ON...

 
LOGIN :

Register | Disclaimer

   EN    FR    IT 

 









Legend :    VFR   Marginal VFR   IFR   Intensive IFR   Very Intensive IFR
Visi :
Ceiling :
>= 8 km
>= 3000ft
5 to 8 km
1000 to 3000 ft
1500m to 5 km
500 to 1000 ft
800 to 1500m
200 to 500 ft
< 800m
< 200 ft
Symbols :   Thunderstorms  Fog  Heavy snow  Heavy precipitations  Wind > 20 kt






- Airport Elevation : 1712 ft
- IATA code : YYD


CYYD - Smithers

CURRENT METAR :
  • 280751Z AUTO 25002KT 3SM BR OVC002 M02/M02 A2975 RMK SLP096

EXPIRED METARs :
  • 280731Z AUTO 00000KT 2 1/4SM -SN OVC002 M02/M02 A2974 RMK SLP095
  • 280700Z AUTO 14002KT 4SM -SN BKN004 BKN013 OVC046 M02/M02 A2974 RMK SLP095
  • 280655Z AUTO 16002KT 5SM -SN BKN004 OVC075 M02/M02 A2974 RMK SLP095
  • 280640Z AUTO 13003KT 9SM -SN OVC004 M01/M02 A2974 RMK SLP095
  • 280633Z AUTO 12003KT 6SM BR OVC004 M02/M02 A2974 RMK SLP095
  • 280627Z AUTO 12003KT 5SM BR BKN006 OVC110 M02/M02 A2975 RMK SLP097
  • 280600Z AUTO 00000KT 3SM BR BKN024 OVC110 M02/M02 A2974 RMK SLP096
  • 280552Z AUTO 00000KT 5SM BR OVC024 M01/M02 A2974 RMK SLP096
  • 280500Z AUTO 24004KT 9SM OVC030 M01/M01 A2975 RMK SLP097

Expired Forecast.



MET'MAP, your aeronautical weather chart ! - Copyright ORBIFLY December 2007 - Disclaimer

ORBIFLY MET'MAP TEAM :

Programming & Development : Alexandra Zaïnal
Concept & original design : Baudouin d'Aumeries
Assistance for programming : Marc-Olivier Méhu
Technical & hardware support : Manuel Goepfert

Contact : metmap@orbifly.com




SOURCES & CREDITS :

   NOAA       Earth
Advisory